Terminal Aerodrome Forecast
Issued by NWS

Home | Current Version | Previous Version | Text Only | Print | Product List | Glossary On
Versions: 1 2 3 4 5 6 7 8 9 10 11 12 13
000
FTPA31 PHFO 291120
TAFHOG
TAF
PHOG 291120Z 2912/3012 VRB05KT P6SM FEW035 SCT050
     FM292000 07015G22KT P6SM FEW035 SCT050
     FM300500 07009KT P6SM FEW035 SCT050
      AMD LTD TO VIS AND WIND TIL 291600=

USA.gov is the U.S. government's official web portal to all federal, state and local government web resources and services.